createdAt,value
2023-05-12T00:02:23.173Z,30.70
2023-05-12T00:04:53.168Z,29.10
2023-05-12T00:07:22.639Z,29.03
2023-05-12T00:09:51.486Z,28.63
2023-05-12T00:12:20.007Z,26.73
2023-05-12T00:14:49.215Z,26.03
2023-05-12T00:17:17.613Z,23.80
2023-05-12T00:19:46.935Z,24.43
2023-05-12T00:22:17.902Z,24.57
2023-05-12T00:24:46.273Z,24.00
2023-05-12T00:27:14.756Z,23.77
2023-05-12T00:29:43.211Z,22.93
2023-05-12T00:32:11.668Z,22.83
2023-05-12T00:34:40.009Z,22.90
2023-05-12T00:37:08.616Z,22.43
2023-05-12T00:39:39.040Z,22.20
2023-05-12T00:42:08.101Z,24.93
2023-05-12T00:44:36.768Z,24.67
2023-05-12T00:47:06.348Z,24.87
2023-05-12T00:49:34.698Z,25.57
2023-05-12T00:52:04.852Z,29.50
2023-05-12T00:54:33.566Z,27.97
2023-05-12T00:57:03.593Z,29.33
2023-05-12T00:59:32.115Z,27.40
2023-05-12T01:02:00.727Z,28.90
2023-05-12T01:04:29.835Z,28.23
2023-05-12T01:07:05.381Z,29.43
2023-05-12T01:09:33.747Z,30.07
2023-05-12T01:12:03.544Z,28.97
2023-05-12T01:14:31.981Z,29.33
2023-05-12T01:17:03.841Z,27.40
2023-05-12T01:19:42.329Z,27.93
2023-05-12T01:22:15.215Z,29.07
2023-05-12T01:24:49.754Z,27.40
2023-05-12T01:27:21.967Z,28.07
2023-05-12T01:29:51.189Z,27.33
2023-05-12T01:32:20.396Z,27.57
2023-05-12T01:34:49.752Z,27.40
2023-05-12T01:37:18.232Z,29.17
2023-05-12T01:39:46.724Z,28.23
2023-05-12T01:42:15.851Z,27.93
2023-05-12T01:44:45.767Z,29.47
2023-05-12T01:47:15.927Z,29.23
2023-05-12T01:49:44.495Z,28.07
2023-05-12T01:52:13.094Z,28.93
2023-05-12T01:54:41.879Z,28.93
2023-05-12T01:57:11.378Z,29.70
2023-05-12T01:59:39.729Z,30.20
2023-05-12T02:02:10.503Z,29.90
2023-05-12T02:04:38.881Z,30.53
2023-05-12T02:07:07.988Z,30.40
2023-05-12T02:09:36.288Z,30.47
2023-05-12T02:12:07.476Z,30.60
2023-05-12T02:14:35.927Z,31.40
2023-05-12T02:17:04.799Z,30.50
2023-05-12T02:19:34.530Z,31.60
2023-05-12T02:22:03.075Z,33.50
2023-05-12T02:24:31.832Z,31.43
2023-05-12T02:27:01.017Z,31.77
2023-05-12T02:29:29.738Z,33.70
2023-05-12T02:32:00.119Z,34.87
2023-05-12T02:34:28.626Z,32.83
2023-05-12T02:36:58.388Z,33.00
2023-05-12T02:39:27.376Z,32.87
2023-05-12T02:41:56.078Z,34.63
2023-05-12T02:44:25.003Z,35.57
2023-05-12T02:46:53.694Z,33.27
2023-05-12T02:49:22.501Z,33.90
2023-05-12T02:51:51.006Z,35.57
2023-05-12T02:54:21.029Z,33.83
2023-05-12T02:56:51.365Z,31.83
2023-05-12T02:59:19.975Z,34.10
2023-05-12T03:01:48.311Z,34.00
2023-05-12T03:04:18.126Z,34.97
2023-05-12T03:06:46.860Z,34.10
2023-05-12T03:09:15.915Z,35.17
2023-05-12T03:11:45.843Z,33.90
2023-05-12T03:14:14.164Z,35.80
2023-05-12T03:16:42.637Z,33.83
2023-05-12T03:19:11.708Z,34.67
2023-05-12T03:21:40.438Z,32.43
2023-05-12T03:24:10.120Z,34.40
2023-05-12T03:26:38.618Z,36.43
2023-05-12T03:29:09.705Z,34.60
2023-05-12T03:31:39.058Z,33.67
2023-05-12T03:34:07.588Z,33.60
2023-05-12T03:36:37.175Z,32.47
2023-05-12T03:39:05.818Z,35.07
2023-05-12T03:41:34.272Z,34.27
2023-05-12T03:44:03.046Z,33.87
2023-05-12T03:46:33.133Z,35.17
2023-05-12T03:49:01.868Z,34.20
2023-05-12T03:51:30.633Z,34.00
2023-05-12T03:53:59.209Z,35.70
2023-05-12T03:56:28.533Z,33.80
2023-05-12T03:58:58.313Z,33.93
2023-05-12T04:01:27.196Z,34.60
2023-05-12T04:03:57.296Z,35.73
2023-05-12T04:06:26.160Z,34.63
2023-05-12T04:08:54.643Z,34.20
2023-05-12T04:11:23.638Z,34.50
2023-05-12T04:13:52.346Z,34.60
2023-05-12T04:16:21.060Z,35.93
2023-05-12T04:18:50.473Z,35.27
2023-05-12T04:21:20.948Z,34.87
2023-05-12T04:23:53.837Z,34.93
2023-05-12T04:26:23.208Z,35.00
2023-05-12T04:28:53.283Z,35.33
2023-05-12T04:31:22.177Z,36.67
2023-05-12T04:33:51.993Z,34.17
2023-05-12T04:36:22.883Z,35.53
2023-05-12T04:38:51.621Z,35.50
2023-05-12T04:41:19.981Z,35.23
2023-05-12T04:46:20.848Z,33.80
2023-05-12T04:48:49.489Z,34.60
2023-05-12T04:51:17.913Z,35.90
2023-05-12T04:53:47.695Z,35.13
2023-05-12T04:56:16.004Z,36.50
2023-05-12T04:58:44.488Z,35.97
2023-05-12T05:01:13.734Z,37.43
2023-05-12T05:03:42.351Z,37.40
2023-05-12T05:06:10.731Z,37.63
2023-05-12T05:08:39.003Z,35.07
2023-05-12T05:11:08.771Z,35.10
2023-05-12T05:13:37.480Z,35.03
2023-05-12T05:16:06.890Z,35.27
2023-05-12T05:18:35.370Z,33.53
2023-05-12T05:21:03.825Z,34.20
2023-05-12T05:23:32.158Z,32.93
2023-05-12T05:26:00.467Z,35.33
2023-05-12T05:28:30.979Z,34.07
2023-05-12T05:30:59.409Z,34.13
2023-05-12T05:33:28.190Z,35.17
2023-05-12T05:35:57.338Z,32.23
2023-05-12T05:38:26.182Z,32.67
2023-05-12T05:40:54.928Z,31.30
2023-05-12T05:43:23.564Z,33.63
2023-05-12T05:45:53.373Z,33.77
2023-05-12T05:48:22.367Z,34.37
2023-05-12T05:50:51.901Z,35.30
2023-05-12T05:53:21.102Z,34.17
2023-05-12T05:55:49.854Z,34.83
2023-05-12T05:58:18.537Z,34.83
2023-05-12T06:00:47.370Z,35.97
2023-05-12T06:03:17.322Z,36.23
2023-05-12T06:05:45.861Z,35.50
2023-05-12T06:08:14.243Z,35.70
2023-05-12T06:10:42.797Z,35.93
2023-05-12T06:13:11.308Z,34.80
2023-05-12T06:15:39.887Z,34.13
2023-05-12T06:18:08.971Z,34.67
2023-05-12T06:20:38.907Z,35.07
2023-05-12T06:23:07.399Z,35.87
2023-05-12T06:25:35.725Z,33.40
2023-05-12T06:28:04.146Z,36.13
2023-05-12T06:30:33.849Z,33.20
2023-05-12T06:33:02.739Z,34.77
2023-05-12T06:35:31.222Z,35.27
2023-05-12T06:38:00.986Z,33.73
2023-05-12T06:40:29.534Z,34.00
2023-05-12T06:42:58.202Z,34.77
2023-05-12T06:45:28.151Z,35.27
2023-05-12T06:47:57.714Z,34.83
2023-05-12T06:50:26.293Z,33.90
2023-05-12T06:52:54.835Z,34.90
2023-05-12T06:55:24.881Z,36.20
2023-05-12T06:57:56.145Z,35.50
2023-05-12T07:00:24.992Z,37.40
2023-05-12T07:02:53.752Z,38.07
2023-05-12T07:05:22.987Z,36.77
2023-05-12T07:07:52.203Z,37.77
2023-05-12T07:10:22.060Z,37.50
2023-05-12T07:12:52.094Z,38.50
2023-05-12T07:15:21.228Z,38.67
2023-05-12T07:17:49.983Z,38.73
2023-05-12T07:20:18.652Z,40.33
2023-05-12T07:22:47.152Z,41.60
2023-05-12T07:25:16.068Z,39.07
2023-05-12T07:27:44.631Z,38.07
2023-05-12T07:30:15.141Z,39.33
2023-05-12T07:32:44.097Z,38.57
2023-05-12T07:35:12.623Z,39.47
2023-05-12T07:37:42.152Z,36.73
2023-05-12T07:40:11.034Z,37.47
2023-05-12T07:42:40.000Z,37.57
2023-05-12T07:45:10.486Z,38.00
2023-05-12T07:47:41.052Z,38.80
2023-05-12T07:50:11.307Z,36.63
2023-05-12T07:52:49.090Z,36.73
2023-05-12T07:55:18.764Z,36.90
2023-05-12T07:57:47.387Z,34.73
2023-05-12T08:00:16.881Z,35.60
2023-05-12T08:02:47.313Z,34.37
2023-05-12T08:05:16.528Z,33.70
2023-05-12T08:07:45.231Z,33.47
2023-05-12T08:10:14.805Z,33.00
2023-05-12T08:12:43.997Z,32.67
2023-05-12T08:15:12.501Z,33.20
2023-05-12T08:17:40.859Z,33.10
2023-05-12T08:20:12.564Z,33.67
2023-05-12T08:22:41.225Z,32.20
2023-05-12T08:25:12.386Z,31.20
2023-05-12T08:27:41.299Z,31.97
2023-05-12T08:30:11.049Z,31.10
2023-05-12T08:32:39.558Z,30.17
2023-05-12T08:35:08.622Z,29.73
2023-05-12T08:37:38.428Z,30.00
2023-05-12T08:40:16.829Z,29.63
2023-05-12T08:42:50.967Z,29.60
2023-05-12T08:45:20.703Z,29.90
2023-05-12T08:47:49.269Z,29.93
2023-05-12T08:50:20.180Z,30.13
2023-05-12T08:52:53.014Z,29.87
2023-05-12T08:55:27.402Z,30.20
2023-05-12T08:57:59.643Z,30.10
2023-05-12T09:00:31.211Z,29.07
2023-05-12T09:03:02.408Z,29.47
2023-05-12T09:05:31.934Z,28.83
2023-05-12T09:08:02.404Z,29.67
2023-05-12T09:10:34.993Z,28.57
2023-05-12T09:13:07.538Z,29.47
2023-05-12T09:15:40.223Z,29.70
2023-05-12T09:18:08.679Z,28.17
2023-05-12T09:20:37.288Z,28.07
2023-05-12T09:23:17.162Z,28.07
2023-05-12T09:25:47.136Z,26.60
2023-05-12T09:28:16.740Z,26.60
2023-05-12T09:30:44.993Z,26.10
2023-05-12T09:33:14.846Z,25.20
2023-05-12T09:35:44.776Z,25.27
2023-05-12T09:38:17.597Z,24.13
2023-05-12T09:40:47.261Z,24.90
2023-05-12T09:43:17.558Z,23.27
2023-05-12T09:45:47.721Z,23.77
2023-05-12T09:48:16.406Z,24.55
2023-05-12T09:50:48.212Z,24.17
2023-05-12T09:53:20.652Z,23.33
2023-05-12T09:55:50.590Z,23.88
2023-05-12T09:58:21.793Z,22.30
2023-05-12T10:01:17.917Z,22.60
2023-05-12T10:03:42.259Z,23.00
2023-05-12T10:06:16.204Z,21.67
2023-05-12T10:08:50.457Z,21.50
2023-05-12T10:11:19.585Z,21.88
2023-05-12T10:13:48.499Z,21.98
2023-05-12T10:16:17.800Z,21.85
2023-05-12T10:18:46.757Z,21.75
2023-05-12T10:21:17.476Z,21.25
2023-05-12T10:23:48.277Z,20.92
2023-05-12T10:26:17.949Z,19.80
2023-05-12T10:28:47.340Z,21.40
2023-05-12T10:31:16.330Z,21.05
2023-05-12T10:33:44.721Z,20.95
2023-05-12T10:36:20.460Z,19.75
2023-05-12T10:38:51.249Z,19.67
2023-05-12T10:41:31.780Z,18.75
2023-05-12T10:44:00.664Z,18.75
2023-05-12T10:46:30.568Z,16.48
2023-05-12T10:49:03.474Z,14.77
2023-05-12T10:51:34.159Z,14.00
2023-05-12T10:54:06.503Z,15.20
2023-05-12T10:56:44.863Z,14.57
2023-05-12T10:59:24.782Z,15.13
2023-05-12T11:02:03.930Z,15.73
2023-05-12T11:04:43.420Z,14.60
2023-05-12T11:07:14.325Z,13.80
2023-05-12T11:09:57.635Z,12.05
2023-05-12T11:12:37.134Z,12.50
2023-05-12T11:15:08.217Z,10.55
2023-05-12T11:17:41.162Z,8.40
2023-05-12T11:20:11.076Z,8.80
2023-05-12T11:22:44.856Z,8.90
2023-05-12T11:25:16.063Z,10.45
2023-05-12T11:27:51.101Z,9.70
2023-05-12T11:30:20.034Z,9.07
2023-05-12T11:32:48.733Z,10.05
2023-05-12T11:35:20.545Z,8.50
2023-05-12T11:37:49.179Z,8.65
2023-05-12T11:40:22.485Z,8.15
2023-05-12T11:42:54.766Z,8.45
2023-05-12T11:45:29.291Z,6.00
2023-05-12T11:48:08.948Z,7.22
2023-05-12T11:50:40.746Z,6.63
2023-05-12T11:53:14.945Z,7.57
2023-05-12T11:55:52.207Z,7.10
2023-05-12T11:58:22.920Z,7.03
2023-05-12T12:00:51.675Z,7.30
2023-05-12T12:03:20.787Z,7.40
2023-05-12T12:06:01.092Z,7.78
2023-05-12T12:08:29.670Z,6.30
2023-05-12T12:11:01.966Z,5.72
2023-05-12T12:13:31.839Z,6.65
2023-05-12T12:16:00.255Z,5.40
2023-05-12T12:18:28.791Z,4.78
2023-05-12T12:20:57.690Z,4.65
2023-05-12T12:23:26.255Z,4.93
2023-05-12T12:25:57.781Z,4.80
2023-05-12T12:28:27.778Z,4.40
2023-05-12T12:30:56.291Z,4.57
2023-05-12T12:33:24.668Z,5.07
2023-05-12T12:35:53.818Z,4.85
2023-05-12T12:38:23.734Z,4.60
2023-05-12T12:40:52.728Z,5.00
2023-05-12T12:43:22.073Z,4.22
2023-05-12T12:45:55.055Z,3.90
2023-05-12T12:48:23.758Z,3.78
2023-05-12T12:50:53.790Z,3.30
2023-05-12T12:53:22.788Z,3.35
2023-05-12T12:55:51.564Z,3.15
2023-05-12T12:58:21.703Z,3.20
2023-05-12T13:00:53.600Z,3.05
2023-05-12T13:03:23.327Z,3.10
2023-05-12T13:05:54.486Z,3.45
2023-05-12T13:08:24.570Z,2.92
2023-05-12T13:10:53.417Z,2.90
2023-05-12T13:13:24.572Z,3.00
2023-05-12T13:15:55.303Z,2.72
2023-05-12T13:18:23.868Z,2.70
2023-05-12T13:20:52.822Z,2.65
2023-05-12T13:23:21.769Z,2.50
2023-05-12T13:25:50.496Z,2.40
2023-05-12T13:28:19.198Z,4.10
2023-05-12T13:30:47.918Z,3.53
2023-05-12T13:33:17.744Z,3.55
2023-05-12T13:35:46.672Z,3.28
2023-05-12T13:38:15.304Z,2.65
2023-05-12T13:40:43.689Z,2.70
2023-05-12T13:43:12.325Z,2.70
2023-05-12T13:45:40.671Z,2.70
2023-05-12T13:48:09.413Z,3.08
2023-05-12T13:50:39.227Z,2.85
2023-05-12T13:53:07.843Z,2.67
2023-05-12T13:55:40.855Z,2.38
2023-05-12T13:58:09.951Z,2.40
2023-05-12T14:00:38.863Z,2.75
2023-05-12T14:03:08.086Z,2.80
2023-05-12T14:05:37.973Z,2.70
2023-05-12T14:08:06.730Z,3.28
2023-05-12T14:10:36.112Z,3.10
2023-05-12T14:13:05.727Z,3.75
2023-05-12T14:15:48.080Z,3.50
2023-05-12T14:18:17.787Z,3.05
2023-05-12T14:20:48.032Z,3.10
2023-05-12T14:23:17.291Z,3.20
2023-05-12T14:25:46.181Z,3.20
2023-05-12T14:28:14.731Z,3.40
2023-05-12T14:30:45.286Z,3.10
2023-05-12T14:33:14.124Z,3.40
2023-05-12T14:35:44.771Z,2.97
2023-05-12T14:38:17.919Z,3.05
2023-05-12T14:40:49.229Z,3.05
2023-05-12T14:43:17.863Z,3.00
2023-05-12T14:45:54.285Z,2.80
2023-05-12T14:48:27.337Z,3.20
2023-05-12T14:50:56.470Z,3.00
2023-05-12T14:53:26.687Z,2.90
2023-05-12T14:55:55.382Z,2.50
2023-05-12T14:58:24.600Z,2.60
2023-05-12T15:00:53.829Z,2.97
2023-05-12T15:03:23.090Z,2.30
2023-05-12T15:08:23.107Z,3.33
2023-05-12T15:10:53.266Z,3.00
2023-05-12T15:13:22.817Z,3.70
2023-05-12T15:15:55.185Z,3.90
2023-05-12T15:18:25.542Z,3.72
2023-05-12T15:20:59.428Z,3.70
2023-05-12T15:23:28.030Z,4.00
2023-05-12T15:25:59.361Z,3.70
2023-05-12T15:28:28.614Z,3.53
2023-05-12T15:30:57.847Z,3.70
2023-05-12T15:33:26.798Z,3.30
2023-05-12T15:35:55.294Z,3.83
2023-05-12T15:38:23.752Z,4.50
2023-05-12T15:40:52.998Z,4.30
2023-05-12T15:43:23.272Z,3.10
2023-05-12T15:45:51.822Z,3.10
2023-05-12T15:48:20.304Z,3.20
2023-05-12T15:50:49.181Z,2.63
2023-05-12T15:53:17.485Z,2.60
2023-05-12T15:55:45.871Z,3.00
2023-05-12T15:58:15.253Z,2.80
2023-05-12T16:00:45.373Z,3.20
2023-05-12T16:03:13.810Z,3.20
2023-05-12T16:05:42.640Z,3.33
2023-05-12T16:08:11.206Z,2.75
2023-05-12T16:10:39.564Z,3.03
2023-05-12T16:13:08.018Z,3.00
2023-05-12T16:15:36.890Z,3.25
2023-05-12T16:18:10.892Z,3.15
2023-05-12T16:20:41.738Z,3.75
2023-05-12T16:23:10.657Z,3.88
2023-05-12T16:25:39.178Z,3.55
2023-05-12T16:28:07.636Z,3.78
2023-05-12T16:30:35.998Z,3.40
2023-05-12T16:33:04.381Z,3.35
2023-05-12T16:35:34.523Z,3.95
2023-05-12T16:38:03.361Z,4.63
2023-05-12T16:40:32.622Z,5.05
2023-05-12T16:43:01.192Z,4.70
2023-05-12T16:45:29.506Z,5.40
2023-05-12T16:47:58.319Z,5.22
2023-05-12T16:50:27.016Z,4.88
2023-05-12T16:52:56.783Z,5.13
2023-05-12T16:55:26.940Z,4.82
2023-05-12T16:57:55.482Z,5.05
2023-05-12T17:00:45.698Z,4.32
2023-05-12T17:03:14.351Z,4.30
2023-05-12T17:05:44.991Z,4.20
2023-05-12T17:08:15.765Z,3.60
2023-05-12T17:10:46.299Z,3.70
2023-05-12T17:13:17.544Z,4.10
2023-05-12T17:15:46.987Z,3.63
2023-05-12T17:18:15.999Z,3.70
2023-05-12T17:20:44.414Z,4.10
2023-05-12T17:23:14.452Z,3.83
2023-05-12T17:25:43.450Z,3.95
2023-05-12T17:28:12.328Z,3.60
2023-05-12T17:30:45.023Z,4.13
2023-05-12T17:33:15.511Z,4.03
2023-05-12T17:35:53.597Z,4.30
2023-05-12T17:38:34.418Z,4.35
2023-05-12T17:41:05.091Z,3.78
2023-05-12T17:43:33.544Z,3.63
2023-05-12T17:46:02.473Z,3.67
2023-05-12T17:48:33.239Z,3.58
2023-05-12T17:51:03.490Z,3.58
2023-05-12T17:53:34.077Z,3.70
2023-05-12T17:56:03.094Z,3.50
2023-05-12T17:58:31.720Z,3.60
2023-05-12T18:01:00.767Z,3.53
2023-05-12T18:03:29.266Z,3.70
2023-05-12T18:05:58.063Z,3.45
2023-05-12T18:08:27.237Z,3.63
2023-05-12T18:10:57.757Z,3.42
2023-05-12T18:13:26.339Z,3.42
2023-05-12T18:15:57.001Z,3.50
2023-05-12T18:18:26.382Z,3.60
2023-05-12T18:20:54.987Z,3.67
2023-05-12T18:23:23.747Z,3.47
2023-05-12T18:25:52.874Z,3.30
2023-05-12T18:28:25.856Z,3.30
2023-05-12T18:30:56.250Z,3.20
2023-05-12T18:33:29.514Z,3.45
2023-05-12T18:36:01.047Z,3.28
2023-05-12T18:38:32.536Z,3.38
2023-05-12T18:41:01.144Z,3.30
2023-05-12T18:43:44.236Z,3.40
2023-05-12T18:46:13.800Z,3.30
2023-05-12T18:48:43.581Z,3.13
2023-05-12T18:51:12.429Z,3.30
2023-05-12T18:53:43.821Z,3.20
2023-05-12T18:56:14.356Z,3.53
2023-05-12T18:58:44.477Z,3.65
2023-05-12T19:01:12.914Z,3.42
2023-05-12T19:03:44.574Z,3.55
2023-05-12T19:06:14.985Z,3.80
2023-05-12T19:08:44.583Z,3.60
2023-05-12T19:11:12.939Z,3.95
2023-05-12T19:13:45.561Z,4.22
2023-05-12T19:16:15.472Z,4.10
2023-05-12T19:18:44.332Z,3.90
2023-05-12T19:21:13.482Z,3.77
2023-05-12T19:23:43.987Z,4.40
2023-05-12T19:26:13.056Z,4.00
2023-05-12T19:28:44.026Z,4.13
2023-05-12T19:31:15.246Z,3.90
2023-05-12T19:33:43.919Z,3.93
2023-05-12T19:36:12.808Z,3.83
2023-05-12T19:38:43.694Z,3.93
2023-05-12T19:41:12.541Z,3.70
2023-05-12T19:43:41.426Z,4.10
2023-05-12T19:46:12.421Z,4.20
2023-05-12T19:48:42.325Z,4.37
2023-05-12T19:51:11.378Z,4.33
2023-05-12T19:53:40.409Z,4.10
2023-05-12T19:56:09.590Z,4.53
2023-05-12T19:58:38.391Z,5.00
2023-05-12T20:01:08.598Z,4.80
2023-05-12T20:03:37.201Z,4.60
2023-05-12T20:06:07.940Z,4.53
2023-05-12T20:08:36.375Z,4.50
2023-05-12T20:11:04.904Z,4.40
2023-05-12T20:13:33.539Z,4.47
2023-05-12T20:16:02.054Z,4.50
2023-05-12T20:18:31.438Z,4.70
2023-05-12T20:21:00.140Z,4.40
2023-05-12T20:23:31.667Z,4.70
2023-05-12T20:26:01.480Z,4.60
2023-05-12T20:28:30.390Z,4.23
2023-05-12T20:30:59.249Z,4.73
2023-05-12T20:33:28.767Z,4.70
2023-05-12T20:35:57.652Z,5.00
2023-05-12T20:38:27.158Z,5.30
2023-05-12T20:40:57.079Z,5.33
2023-05-12T20:43:26.662Z,5.60
2023-05-12T20:45:55.603Z,6.03
2023-05-12T20:48:24.215Z,5.50
2023-05-12T20:50:54.239Z,6.07
2023-05-12T20:53:27.054Z,6.77
2023-05-12T20:55:57.844Z,6.40
2023-05-12T20:58:26.802Z,6.33
2023-05-12T21:00:55.483Z,6.60
2023-05-12T21:03:24.626Z,5.80
2023-05-12T21:05:53.394Z,5.83
2023-05-12T21:08:21.738Z,5.70
2023-05-12T21:10:50.330Z,5.67
2023-05-12T21:13:20.819Z,5.93
2023-05-12T21:15:49.189Z,5.90
2023-05-12T21:18:17.720Z,5.50
2023-05-12T21:20:47.198Z,5.97
2023-05-12T21:23:15.545Z,5.70
2023-05-12T21:25:44.246Z,6.13
2023-05-12T21:28:12.993Z,5.93
2023-05-12T21:30:42.705Z,6.10
2023-05-12T21:33:11.166Z,5.90
2023-05-12T21:35:39.649Z,6.33
2023-05-12T21:38:10.217Z,6.50
2023-05-12T21:40:39.144Z,6.40
2023-05-12T21:43:07.561Z,6.70
2023-05-12T21:45:36.023Z,6.87
2023-05-12T21:48:06.526Z,7.20
2023-05-12T21:50:34.951Z,7.30
2023-05-12T21:53:03.312Z,7.20
2023-05-12T21:55:31.658Z,7.43
2023-05-12T21:58:00.274Z,6.97
2023-05-12T22:00:32.746Z,7.23
2023-05-12T22:03:01.176Z,7.80
2023-05-12T22:05:31.955Z,7.67
2023-05-12T22:08:00.752Z,7.93
2023-05-12T22:10:30.485Z,25.30
2023-05-12T22:12:58.927Z,33.77
2023-05-12T22:15:27.748Z,31.93
2023-05-12T22:17:56.961Z,4.57
2023-05-12T22:20:26.880Z,4.33
2023-05-12T22:22:57.800Z,7.67
2023-05-12T22:25:27.100Z,7.33
2023-05-12T22:27:55.944Z,8.60
2023-05-12T22:30:25.103Z,8.67
2023-05-12T22:32:55.057Z,7.93
2023-05-12T22:35:24.354Z,8.13
2023-05-12T22:37:53.560Z,8.07
2023-05-12T22:40:23.940Z,8.00
2023-05-12T22:42:52.472Z,7.60
2023-05-12T22:45:22.377Z,8.27
2023-05-12T22:47:51.289Z,7.67
2023-05-12T22:50:20.911Z,8.20
2023-05-12T22:52:53.029Z,8.03
2023-05-12T22:55:27.355Z,7.83
2023-05-12T22:57:55.723Z,8.60
2023-05-12T23:00:24.583Z,8.80
2023-05-12T23:02:53.516Z,8.40
2023-05-12T23:05:24.649Z,8.57
2023-05-12T23:07:53.151Z,7.93
2023-05-12T23:10:24.847Z,8.40
2023-05-12T23:12:53.784Z,8.80
2023-05-12T23:15:25.856Z,8.27
2023-05-12T23:17:54.323Z,9.10
2023-05-12T23:20:22.932Z,8.87
2023-05-12T23:22:51.866Z,8.50
2023-05-12T23:25:21.277Z,8.70
2023-05-12T23:27:51.550Z,8.60
2023-05-12T23:30:20.452Z,8.83
2023-05-12T23:32:50.675Z,9.00
2023-05-12T23:35:19.485Z,9.80
2023-05-12T23:37:47.876Z,9.13
2023-05-12T23:40:16.297Z,9.73
2023-05-12T23:42:44.573Z,9.90
2023-05-12T23:45:15.818Z,9.47
2023-05-12T23:47:44.582Z,9.17
2023-05-12T23:50:13.252Z,9.63
2023-05-12T23:52:41.640Z,9.07
2023-05-12T23:55:11.674Z,9.30
2023-05-12T23:57:40.108Z,8.63
